sensor_id;sensor_type;location;lat;lon;timestamp;pressure;altitude;pressure_sealevel;temperature;humidity
64368;BME280;50692;53.314;-6.300;2023-04-27T00:01:11;101158.91;;;12.45;58.66
64368;BME280;50692;53.314;-6.300;2023-04-27T00:03:57;101150.50;;;12.37;58.53
64368;BME280;50692;53.314;-6.300;2023-04-27T00:06:44;101152.00;;;12.43;58.38
64368;BME280;50692;53.314;-6.300;2023-04-27T00:09:31;101159.69;;;12.47;58.77
64368;BME280;50692;53.314;-6.300;2023-04-27T00:12:17;101114.06;;;12.25;58.74
64368;BME280;50692;53.314;-6.300;2023-04-27T00:15:03;101146.28;;;12.51;58.78
64368;BME280;50692;53.314;-6.300;2023-04-27T00:17:50;101146.00;;;12.55;58.57
64368;BME280;50692;53.314;-6.300;2023-04-27T00:20:36;101141.66;;;12.54;58.52
64368;BME280;50692;53.314;-6.300;2023-04-27T00:23:22;101150.16;;;12.61;58.29
64368;BME280;50692;53.314;-6.300;2023-04-27T00:26:08;101128.56;;;12.51;57.99
64368;BME280;50692;53.314;-6.300;2023-04-27T00:28:54;101144.16;;;12.57;57.85
64368;BME280;50692;53.314;-6.300;2023-04-27T00:31:39;101133.03;;;12.51;57.64
64368;BME280;50692;53.314;-6.300;2023-04-27T00:34:27;101139.53;;;12.61;57.81
64368;BME280;50692;53.314;-6.300;2023-04-27T00:37:12;101148.19;;;12.64;57.82
64368;BME280;50692;53.314;-6.300;2023-04-27T00:39:58;101145.59;;;12.63;58.18
64368;BME280;50692;53.314;-6.300;2023-04-27T00:42:44;101135.00;;;12.63;58.24
64368;BME280;50692;53.314;-6.300;2023-04-27T00:45:41;101129.63;;;12.64;58.47
64368;BME280;50692;53.314;-6.300;2023-04-27T00:48:27;101123.44;;;12.64;58.33
64368;BME280;50692;53.314;-6.300;2023-04-27T00:51:13;101108.56;;;12.61;58.34
64368;BME280;50692;53.314;-6.300;2023-04-27T00:54:00;101073.16;;;12.46;58.57
64368;BME280;50692;53.314;-6.300;2023-04-27T00:56:50;101087.50;;;12.58;58.96
64368;BME280;50692;53.314;-6.300;2023-04-27T00:59:36;101086.66;;;12.58;59.01
64368;BME280;50692;53.314;-6.300;2023-04-27T01:02:23;101093.66;;;12.59;59.23
64368;BME280;50692;53.314;-6.300;2023-04-27T01:05:09;101083.84;;;12.61;59.05
64368;BME280;50692;53.314;-6.300;2023-04-27T01:07:56;101060.97;;;12.42;58.68
64368;BME280;50692;53.314;-6.300;2023-04-27T01:10:41;101075.59;;;12.49;58.83
64368;BME280;50692;53.314;-6.300;2023-04-27T01:13:27;101067.06;;;12.44;58.74
64368;BME280;50692;53.314;-6.300;2023-04-27T01:16:16;101075.44;;;12.53;58.71
64368;BME280;50692;53.314;-6.300;2023-04-27T01:19:02;101081.53;;;12.55;58.56
64368;BME280;50692;53.314;-6.300;2023-04-27T01:21:48;101079.72;;;12.55;58.65
64368;BME280;50692;53.314;-6.300;2023-04-27T01:24:35;101061.84;;;12.43;58.72
64368;BME280;50692;53.314;-6.300;2023-04-27T01:27:22;101028.84;;;12.33;58.62
64368;BME280;50692;53.314;-6.300;2023-04-27T01:30:08;101048.34;;;12.47;58.88
64368;BME280;50692;53.314;-6.300;2023-04-27T01:32:54;101027.63;;;12.38;58.81
64368;BME280;50692;53.314;-6.300;2023-04-27T01:35:41;101045.69;;;12.47;58.99
64368;BME280;50692;53.314;-6.300;2023-04-27T01:38:27;101013.09;;;12.30;59.20
64368;BME280;50692;53.314;-6.300;2023-04-27T01:41:13;101035.16;;;12.46;59.26
64368;BME280;50692;53.314;-6.300;2023-04-27T01:43:59;101014.38;;;12.38;59.36
64368;BME280;50692;53.314;-6.300;2023-04-27T01:46:45;100998.03;;;12.30;59.38
64368;BME280;50692;53.314;-6.300;2023-04-27T01:49:32;101012.34;;;12.43;58.53
64368;BME280;50692;53.314;-6.300;2023-04-27T01:52:18;101011.56;;;12.41;58.13
64368;BME280;50692;53.314;-6.300;2023-04-27T01:55:04;100980.66;;;12.24;57.53
64368;BME280;50692;53.314;-6.300;2023-04-27T01:57:50;100992.66;;;12.32;57.18
64368;BME280;50692;53.314;-6.300;2023-04-27T02:00:36;101006.50;;;12.37;57.32
64368;BME280;50692;53.314;-6.300;2023-04-27T02:03:22;100980.78;;;12.23;57.86
64368;BME280;50692;53.314;-6.300;2023-04-27T02:06:08;100997.94;;;12.32;58.19
64368;BME280;50692;53.314;-6.300;2023-04-27T02:08:53;101006.78;;;12.32;58.84
64368;BME280;50692;53.314;-6.300;2023-04-27T02:11:39;100992.66;;;12.32;59.06
64368;BME280;50692;53.314;-6.300;2023-04-27T02:14:25;101007.19;;;12.40;59.46
64368;BME280;50692;53.314;-6.300;2023-04-27T02:17:11;101009.69;;;12.43;59.48
64368;BME280;50692;53.314;-6.300;2023-04-27T02:19:57;101000.00;;;12.42;59.94
64368;BME280;50692;53.314;-6.300;2023-04-27T02:22:43;100991.28;;;12.40;60.15
64368;BME280;50692;53.314;-6.300;2023-04-27T02:25:29;100978.31;;;12.36;60.90
64368;BME280;50692;53.314;-6.300;2023-04-27T02:28:16;100989.50;;;12.41;61.28
64368;BME280;50692;53.314;-6.300;2023-04-27T02:31:03;100961.63;;;12.18;61.92
64368;BME280;50692;53.314;-6.300;2023-04-27T02:33:49;100942.41;;;12.14;61.92
64368;BME280;50692;53.314;-6.300;2023-04-27T02:36:35;100983.91;;;12.45;62.34
64368;BME280;50692;53.314;-6.300;2023-04-27T02:39:21;100979.47;;;12.46;62.74
64368;BME280;50692;53.314;-6.300;2023-04-27T02:42:07;100985.44;;;12.49;62.98
64368;BME280;50692;53.314;-6.300;2023-04-27T02:44:53;100962.66;;;12.47;62.77
64368;BME280;50692;53.314;-6.300;2023-04-27T02:47:45;100972.81;;;12.55;63.03
64368;BME280;50692;53.314;-6.300;2023-04-27T02:50:31;100974.44;;;12.57;63.33
64368;BME280;50692;53.314;-6.300;2023-04-27T02:53:17;100971.00;;;12.55;63.62
64368;BME280;50692;53.314;-6.300;2023-04-27T02:56:03;100974.91;;;12.64;63.36
64368;BME280;50692;53.314;-6.300;2023-04-27T02:58:49;100954.06;;;12.58;63.43
64368;BME280;50692;53.314;-6.300;2023-04-27T03:01:35;100958.16;;;12.63;63.88
64368;BME280;50692;53.314;-6.300;2023-04-27T03:04:21;100966.09;;;12.63;64.64
64368;BME280;50692;53.314;-6.300;2023-04-27T03:07:06;100958.84;;;12.67;64.64
64368;BME280;50692;53.314;-6.300;2023-04-27T03:09:52;100964.13;;;12.67;65.06
64368;BME280;50692;53.314;-6.300;2023-04-27T03:12:38;100965.97;;;12.51;69.98
64368;BME280;50692;53.314;-6.300;2023-04-27T03:15:24;100959.28;;;12.59;68.71
64368;BME280;50692;53.314;-6.300;2023-04-27T03:18:10;100949.78;;;12.55;69.77
64368;BME280;50692;53.314;-6.300;2023-04-27T03:21:10;100953.13;;;12.59;71.18
64368;BME280;50692;53.314;-6.300;2023-04-27T03:23:56;100946.13;;;12.58;71.10
64368;BME280;50692;53.314;-6.300;2023-04-27T03:26:43;100946.81;;;12.61;71.09
64368;BME280;50692;53.314;-6.300;2023-04-27T03:29:29;100941.31;;;12.64;70.98
64368;BME280;50692;53.314;-6.300;2023-04-27T03:32:16;100927.69;;;12.70;70.97
64368;BME280;50692;53.314;-6.300;2023-04-27T03:35:03;100939.53;;;12.65;71.50
64368;BME280;50692;53.314;-6.300;2023-04-27T03:37:49;100913.81;;;12.51;72.42
64368;BME280;50692;53.314;-6.300;2023-04-27T03:40:34;100916.84;;;12.59;72.42
64368;BME280;50692;53.314;-6.300;2023-04-27T03:43:21;100939.19;;;12.55;73.03
64368;BME280;50692;53.314;-6.300;2023-04-27T03:46:07;100915.50;;;12.52;73.40
64368;BME280;50692;53.314;-6.300;2023-04-27T03:48:53;100926.16;;;12.66;72.59
64368;BME280;50692;53.314;-6.300;2023-04-27T03:51:38;100912.53;;;12.72;72.08
64368;BME280;50692;53.314;-6.300;2023-04-27T03:54:26;100899.84;;;12.78;71.63
64368;BME280;50692;53.314;-6.300;2023-04-27T03:57:12;100907.75;;;12.79;71.71
64368;BME280;50692;53.314;-6.300;2023-04-27T03:59:58;100913.72;;;12.83;71.47
64368;BME280;50692;53.314;-6.300;2023-04-27T04:02:44;100915.41;;;12.84;71.20
64368;BME280;50692;53.314;-6.300;2023-04-27T04:05:30;100893.34;;;12.83;71.30
64368;BME280;50692;53.314;-6.300;2023-04-27T04:08:15;100906.69;;;12.82;71.52
64368;BME280;50692;53.314;-6.300;2023-04-27T04:11:01;100900.91;;;12.75;72.15
64368;BME280;50692;53.314;-6.300;2023-04-27T04:13:48;100905.63;;;12.70;73.20
64368;BME280;50692;53.314;-6.300;2023-04-27T04:16:34;100901.63;;;12.63;73.52
64368;BME280;50692;53.314;-6.300;2023-04-27T04:19:19;100899.56;;;12.68;73.23
64368;BME280;50692;53.314;-6.300;2023-04-27T04:22:05;100896.53;;;12.74;72.95
64368;BME280;50692;53.314;-6.300;2023-04-27T04:24:51;100899.00;;;12.77;72.70
64368;BME280;50692;53.314;-6.300;2023-04-27T04:27:37;100898.72;;;12.82;72.45
64368;BME280;50692;53.314;-6.300;2023-04-27T04:30:23;100888.78;;;12.85;72.31
64368;BME280;50692;53.314;-6.300;2023-04-27T04:33:09;100891.38;;;12.87;72.21
64368;BME280;50692;53.314;-6.300;2023-04-27T04:35:55;100893.34;;;12.83;72.94
64368;BME280;50692;53.314;-6.300;2023-04-27T04:38:42;100889.88;;;12.67;74.42
64368;BME280;50692;53.314;-6.300;2023-04-27T04:41:28;100881.13;;;12.51;75.60
64368;BME280;50692;53.314;-6.300;2023-04-27T04:44:14;100885.75;;;12.47;76.18
64368;BME280;50692;53.314;-6.300;2023-04-27T04:47:00;100884.69;;;12.49;76.21
64368;BME280;50692;53.314;-6.300;2023-04-27T04:49:46;100874.88;;;12.52;76.14
64368;BME280;50692;53.314;-6.300;2023-04-27T04:52:32;100874.69;;;12.55;76.06
64368;BME280;50692;53.314;-6.300;2023-04-27T04:55:18;100874.31;;;12.46;77.07
64368;BME280;50692;53.314;-6.300;2023-04-27T04:58:04;100868.41;;;12.41;77.55
64368;BME280;50692;53.314;-6.300;2023-04-27T05:00:49;100866.03;;;12.37;77.83
64368;BME280;50692;53.314;-6.300;2023-04-27T05:03:35;100860.78;;;12.35;77.88
64368;BME280;50692;53.314;-6.300;2023-04-27T05:06:21;100857.47;;;12.32;78.66
64368;BME280;50692;53.314;-6.300;2023-04-27T05:09:07;100861.25;;;12.28;79.19
64368;BME280;50692;53.314;-6.300;2023-04-27T05:11:52;100875.63;;;12.23;80.01
64368;BME280;50692;53.314;-6.300;2023-04-27T05:14:38;100868.09;;;12.16;80.66
64368;BME280;50692;53.314;-6.300;2023-04-27T05:17:25;100867.53;;;12.11;81.38
64368;BME280;50692;53.314;-6.300;2023-04-27T05:20:11;100875.66;;;12.08;81.77
64368;BME280;50692;53.314;-6.300;2023-04-27T05:22:56;100871.63;;;12.00;82.24
64368;BME280;50692;53.314;-6.300;2023-04-27T05:25:42;100875.63;;;11.92;83.16
64368;BME280;50692;53.314;-6.300;2023-04-27T05:28:28;100867.25;;;11.99;82.59
64368;BME280;50692;53.314;-6.300;2023-04-27T05:31:14;100870.09;;;11.96;82.80
64368;BME280;50692;53.314;-6.300;2023-04-27T05:34:00;100862.75;;;12.02;82.41
64368;BME280;50692;53.314;-6.300;2023-04-27T05:36:45;100859.06;;;12.04;82.40
64368;BME280;50692;53.314;-6.300;2023-04-27T05:39:31;100847.41;;;12.07;82.23
64368;BME280;50692;53.314;-6.300;2023-04-27T05:42:17;100852.03;;;12.03;82.47
64368;BME280;50692;53.314;-6.300;2023-04-27T05:45:03;100842.31;;;12.04;82.47
64368;BME280;50692;53.314;-6.300;2023-04-27T05:47:49;100846.06;;;11.99;82.61
64368;BME280;50692;53.314;-6.300;2023-04-27T05:50:35;100850.00;;;12.08;82.19
64368;BME280;50692;53.314;-6.300;2023-04-27T05:53:21;100853.22;;;12.13;82.06
64368;BME280;50692;53.314;-6.300;2023-04-27T05:56:07;100842.91;;;12.09;82.20
64368;BME280;50692;53.314;-6.300;2023-04-27T05:58:53;100846.34;;;12.11;82.13
64368;BME280;50692;53.314;-6.300;2023-04-27T06:01:38;100848.78;;;12.14;81.88
64368;BME280;50692;53.314;-6.300;2023-04-27T06:04:24;100856.66;;;12.15;81.99
64368;BME280;50692;53.314;-6.300;2023-04-27T06:07:12;100847.78;;;12.00;82.66
64368;BME280;50692;53.314;-6.300;2023-04-27T06:09:59;100858.78;;;12.09;82.54
64368;BME280;50692;53.314;-6.300;2023-04-27T06:12:44;100854.69;;;12.03;83.28
64368;BME280;50692;53.314;-6.300;2023-04-27T06:15:31;100847.25;;;12.10;82.98
64368;BME280;50692;53.314;-6.300;2023-04-27T06:18:17;100838.19;;;12.14;82.89
64368;BME280;50692;53.314;-6.300;2023-04-27T06:21:03;100836.88;;;12.21;82.56
64368;BME280;50692;53.314;-6.300;2023-04-27T06:23:49;100827.16;;;12.21;82.58
64368;BME280;50692;53.314;-6.300;2023-04-27T06:26:36;100832.38;;;12.23;82.71
64368;BME280;50692;53.314;-6.300;2023-04-27T06:29:21;100779.94;;;11.98;82.94
64368;BME280;50692;53.314;-6.300;2023-04-27T06:32:07;100818.34;;;12.21;82.75
64368;BME280;50692;53.314;-6.300;2023-04-27T06:34:53;100816.63;;;12.20;82.79
64368;BME280;50692;53.314;-6.300;2023-04-27T06:37:39;100817.94;;;12.13;82.32
64368;BME280;50692;53.314;-6.300;2023-04-27T06:40:25;100813.25;;;12.18;82.48
64368;BME280;50692;53.314;-6.300;2023-04-27T06:43:11;100815.63;;;12.22;81.92
64368;BME280;50692;53.314;-6.300;2023-04-27T06:45:57;100817.66;;;12.17;82.05
64368;BME280;50692;53.314;-6.300;2023-04-27T06:48:43;100800.84;;;12.03;82.47
64368;BME280;50692;53.314;-6.300;2023-04-27T06:51:28;100813.75;;;12.09;81.75
64368;BME280;50692;53.314;-6.300;2023-04-27T06:54:14;100810.44;;;12.05;81.83
64368;BME280;50692;53.314;-6.300;2023-04-27T06:57:01;100809.22;;;12.11;81.47
64368;BME280;50692;53.314;-6.300;2023-04-27T06:59:47;100811.38;;;12.04;82.08
64368;BME280;50692;53.314;-6.300;2023-04-27T07:02:33;100830.44;;;12.11;81.63
64368;BME280;50692;53.314;-6.300;2023-04-27T07:05:19;100813.41;;;11.99;82.26
64368;BME280;50692;53.314;-6.300;2023-04-27T07:08:05;100803.00;;;12.12;81.73
64368;BME280;50692;53.314;-6.300;2023-04-27T07:10:51;100806.38;;;12.14;81.66
64368;BME280;50692;53.314;-6.300;2023-04-27T07:13:37;100802.63;;;12.18;81.31
64368;BME280;50692;53.314;-6.300;2023-04-27T07:16:23;100805.97;;;12.21;81.23
64368;BME280;50692;53.314;-6.300;2023-04-27T07:19:09;100813.91;;;12.21;81.17
64368;BME280;50692;53.314;-6.300;2023-04-27T07:21:55;100802.09;;;12.27;80.96
64368;BME280;50692;53.314;-6.300;2023-04-27T07:24:41;100811.72;;;12.28;81.07
64368;BME280;50692;53.314;-6.300;2023-04-27T07:27:26;100803.78;;;12.28;80.68
64368;BME280;50692;53.314;-6.300;2023-04-27T07:30:12;100813.84;;;12.37;80.54
64368;BME280;50692;53.314;-6.300;2023-04-27T07:32:58;100810.84;;;12.43;80.12
64368;BME280;50692;53.314;-6.300;2023-04-27T07:35:45;100812.72;;;12.41;80.31
64368;BME280;50692;53.314;-6.300;2023-04-27T07:38:31;100816.53;;;12.52;80.11
64368;BME280;50692;53.314;-6.300;2023-04-27T07:41:16;100809.38;;;12.54;79.67
64368;BME280;50692;53.314;-6.300;2023-04-27T07:44:02;100820.03;;;12.52;79.66
64368;BME280;50692;53.314;-6.300;2023-04-27T07:46:48;100816.00;;;12.61;79.51
64368;BME280;50692;53.314;-6.300;2023-04-27T07:49:35;100819.75;;;12.57;79.25
64368;BME280;50692;53.314;-6.300;2023-04-27T07:52:21;100816.75;;;12.63;79.05
64368;BME280;50692;53.314;-6.300;2023-04-27T07:55:08;100811.84;;;12.71;78.67
64368;BME280;50692;53.314;-6.300;2023-04-27T07:57:57;100801.34;;;12.69;78.17
64368;BME280;50692;53.314;-6.300;2023-04-27T08:00:43;100804.66;;;12.73;78.04
64368;BME280;50692;53.314;-6.300;2023-04-27T08:03:28;100791.84;;;12.65;78.11
64368;BME280;50692;53.314;-6.300;2023-04-27T08:06:14;100786.06;;;12.59;78.17
64368;BME280;50692;53.314;-6.300;2023-04-27T08:09:00;100792.22;;;12.59;78.42
64368;BME280;50692;53.314;-6.300;2023-04-27T08:11:48;100799.72;;;12.67;77.82
64368;BME280;50692;53.314;-6.300;2023-04-27T08:14:34;100793.66;;;12.65;78.04
64368;BME280;50692;53.314;-6.300;2023-04-27T08:17:20;100800.78;;;12.64;78.64
64368;BME280;50692;53.314;-6.300;2023-04-27T08:20:08;100805.69;;;12.70;77.97
64368;BME280;50692;53.314;-6.300;2023-04-27T08:22:55;100791.22;;;12.76;77.68
64368;BME280;50692;53.314;-6.300;2023-04-27T08:25:41;100778.31;;;12.70;77.68
64368;BME280;50692;53.314;-6.300;2023-04-27T08:28:27;100782.88;;;12.68;77.75
64368;BME280;50692;53.314;-6.300;2023-04-27T08:31:13;100774.91;;;12.68;77.67
64368;BME280;50692;53.314;-6.300;2023-04-27T08:33:59;100780.28;;;12.66;77.86
64368;BME280;50692;53.314;-6.300;2023-04-27T08:36:45;100776.50;;;12.70;77.39
64368;BME280;50692;53.314;-6.300;2023-04-27T08:39:30;100773.59;;;12.75;77.35
64368;BME280;50692;53.314;-6.300;2023-04-27T08:42:16;100772.53;;;12.78;77.07
64368;BME280;50692;53.314;-6.300;2023-04-27T08:45:05;100764.69;;;12.76;77.28
64368;BME280;50692;53.314;-6.300;2023-04-27T08:47:53;100754.63;;;12.67;77.44
64368;BME280;50692;53.314;-6.300;2023-04-27T08:50:42;100762.03;;;12.76;77.61
64368;BME280;50692;53.314;-6.300;2023-04-27T08:53:28;100759.28;;;12.78;77.31
64368;BME280;50692;53.314;-6.300;2023-04-27T08:56:16;100745.09;;;12.64;77.45
64368;BME280;50692;53.314;-6.300;2023-04-27T08:59:14;100754.72;;;12.65;77.80
64368;BME280;50692;53.314;-6.300;2023-04-27T09:02:00;100739.84;;;12.63;77.96
64368;BME280;50692;53.314;-6.300;2023-04-27T09:04:46;100738.91;;;12.64;77.99
64368;BME280;50692;53.314;-6.300;2023-04-27T09:07:32;100739.84;;;12.77;77.79
64368;BME280;50692;53.314;-6.300;2023-04-27T09:10:18;100733.59;;;12.78;77.57
64368;BME280;50692;53.314;-6.300;2023-04-27T09:13:04;100732.75;;;12.78;77.47
64368;BME280;50692;53.314;-6.300;2023-04-27T09:15:50;100730.69;;;12.83;77.32
64368;BME280;50692;53.314;-6.300;2023-04-27T09:18:40;100733.16;;;12.86;77.59
64368;BME280;50692;53.314;-6.300;2023-04-27T09:21:28;100726.97;;;12.85;77.48
64368;BME280;50692;53.314;-6.300;2023-04-27T09:24:15;100730.50;;;12.86;77.55
64368;BME280;50692;53.314;-6.300;2023-04-27T09:27:01;100729.84;;;12.82;77.58
64368;BME280;50692;53.314;-6.300;2023-04-27T09:29:47;100719.59;;;12.76;77.96
64368;BME280;50692;53.314;-6.300;2023-04-27T09:32:33;100734.84;;;12.87;77.93
64368;BME280;50692;53.314;-6.300;2023-04-27T09:35:24;100733.16;;;12.86;77.96
64368;BME280;50692;53.314;-6.300;2023-04-27T09:38:10;100721.28;;;12.77;78.45
64368;BME280;50692;53.314;-6.300;2023-04-27T09:40:56;100712.97;;;12.83;78.54
64368;BME280;50692;53.314;-6.300;2023-04-27T09:43:43;100701.41;;;12.84;78.75
64368;BME280;50692;53.314;-6.300;2023-04-27T09:46:32;100717.97;;;13.02;79.00
64368;BME280;50692;53.314;-6.300;2023-04-27T09:49:18;100699.19;;;13.05;78.90
64368;BME280;50692;53.314;-6.300;2023-04-27T09:52:04;100708.94;;;13.19;78.79
64368;BME280;50692;53.314;-6.300;2023-04-27T09:54:53;100703.81;;;13.30;78.89
64368;BME280;50692;53.314;-6.300;2023-04-27T10:07:17;100698.88;;;13.65;77.21
64368;BME280;50692;53.314;-6.300;2023-04-27T10:10:03;100692.16;;;13.60;76.86
64368;BME280;50692;53.314;-6.300;2023-04-27T10:13:02;100690.19;;;13.49;76.70
64368;BME280;50692;53.314;-6.300;2023-04-27T10:15:48;100691.25;;;13.47;76.36
64368;BME280;50692;53.314;-6.300;2023-04-27T10:18:34;100690.13;;;13.51;75.95
64368;BME280;50692;53.314;-6.300;2023-04-27T10:21:21;100673.34;;;13.36;75.68
64368;BME280;50692;53.314;-6.300;2023-04-27T10:24:08;100670.03;;;13.32;76.65
64368;BME280;50692;53.314;-6.300;2023-04-27T10:27:00;100679.72;;;13.33;76.60
64368;BME280;50692;53.314;-6.300;2023-04-27T10:29:49;100688.84;;;13.29;77.04
64368;BME280;50692;53.314;-6.300;2023-04-27T10:32:35;100687.69;;;13.33;77.27
64368;BME280;50692;53.314;-6.300;2023-04-27T10:38:39;100677.25;;;13.57;76.46
64368;BME280;50692;53.314;-6.300;2023-04-27T10:41:33;100679.84;;;13.72;76.12
64368;BME280;50692;53.314;-6.300;2023-04-27T10:44:25;100666.78;;;13.68;75.54
64368;BME280;50692;53.314;-6.300;2023-04-27T10:47:14;100672.19;;;13.67;75.45
64368;BME280;50692;53.314;-6.300;2023-04-27T10:50:01;100675.63;;;13.69;75.47
64368;BME280;50692;53.314;-6.300;2023-04-27T10:52:48;100674.25;;;13.49;76.02
64368;BME280;50692;53.314;-6.300;2023-04-27T10:55:34;100672.97;;;13.42;76.88
64368;BME280;50692;53.314;-6.300;2023-04-27T10:58:24;100667.50;;;13.31;77.56
64368;BME280;50692;53.314;-6.300;2023-04-27T11:01:10;100672.16;;;13.27;77.65
64368;BME280;50692;53.314;-6.300;2023-04-27T11:03:59;100667.84;;;13.39;77.52
64368;BME280;50692;53.314;-6.300;2023-04-27T11:06:45;100665.69;;;13.31;77.98
64368;BME280;50692;53.314;-6.300;2023-04-27T11:09:31;100657.94;;;13.28;78.02
64368;BME280;50692;53.314;-6.300;2023-04-27T11:12:17;100652.22;;;13.34;77.78
64368;BME280;50692;53.314;-6.300;2023-04-27T11:15:03;100638.44;;;13.42;77.96
64368;BME280;50692;53.314;-6.300;2023-04-27T11:17:49;100644.34;;;13.60;77.52
64368;BME280;50692;53.314;-6.300;2023-04-27T11:20:36;100631.81;;;13.62;77.00
64368;BME280;50692;53.314;-6.300;2023-04-27T11:23:26;100633.97;;;13.82;76.57
64368;BME280;50692;53.314;-6.300;2023-04-27T11:26:18;100612.41;;;13.87;76.22
64368;BME280;50692;53.314;-6.300;2023-04-27T11:29:08;100621.13;;;13.89;76.30
64368;BME280;50692;53.314;-6.300;2023-04-27T11:31:58;100623.69;;;13.90;76.34
64368;BME280;50692;53.314;-6.300;2023-04-27T11:34:48;100607.41;;;13.95;75.94
64368;BME280;50692;53.314;-6.300;2023-04-27T11:37:34;100618.25;;;13.92;76.53
64368;BME280;50692;53.314;-6.300;2023-04-27T11:40:20;100624.22;;;13.96;75.94
64368;BME280;50692;53.314;-6.300;2023-04-27T11:43:11;100599.66;;;13.79;76.31
64368;BME280;50692;53.314;-6.300;2023-04-27T11:45:57;100621.66;;;13.81;76.73
64368;BME280;50692;53.314;-6.300;2023-04-27T11:48:44;100613.06;;;13.90;76.73
64368;BME280;50692;53.314;-6.300;2023-04-27T11:51:31;100611.03;;;13.94;75.91
64368;BME280;50692;53.314;-6.300;2023-04-27T11:54:27;100614.03;;;14.02;75.89
64368;BME280;50692;53.314;-6.300;2023-04-27T11:57:13;100606.81;;;14.04;75.64
64368;BME280;50692;53.314;-6.300;2023-04-27T12:00:03;100602.13;;;14.08;75.52
64368;BME280;50692;53.314;-6.300;2023-04-27T12:02:56;100603.16;;;13.92;75.83
64368;BME280;50692;53.314;-6.300;2023-04-27T12:05:49;100604.56;;;13.98;75.67
64368;BME280;50692;53.314;-6.300;2023-04-27T12:08:35;100595.09;;;13.94;75.83
64368;BME280;50692;53.314;-6.300;2023-04-27T12:11:26;100599.44;;;13.95;76.08
64368;BME280;50692;53.314;-6.300;2023-04-27T12:14:14;100599.44;;;13.95;76.92
64368;BME280;50692;53.314;-6.300;2023-04-27T12:17:00;100599.13;;;14.00;76.65
64368;BME280;50692;53.314;-6.300;2023-04-27T12:19:46;100596.69;;;14.09;76.85
64368;BME280;50692;53.314;-6.300;2023-04-27T12:22:32;100600.50;;;14.18;76.12
64368;BME280;50692;53.314;-6.300;2023-04-27T12:25:18;100599.66;;;14.18;76.28
64368;BME280;50692;53.314;-6.300;2023-04-27T12:28:04;100599.66;;;14.18;76.02
64368;BME280;50692;53.314;-6.300;2023-04-27T12:30:50;100597.84;;;14.18;75.86
64368;BME280;50692;53.314;-6.300;2023-04-27T12:33:36;100582.88;;;14.04;76.10
64368;BME280;50692;53.314;-6.300;2023-04-27T12:36:22;100595.81;;;14.22;76.17
64368;BME280;50692;53.314;-6.300;2023-04-27T12:39:18;100591.47;;;14.21;76.43
64368;BME280;50692;53.314;-6.300;2023-04-27T12:42:04;100587.34;;;14.29;75.98
64368;BME280;50692;53.314;-6.300;2023-04-27T12:44:50;100586.66;;;14.38;75.85
64368;BME280;50692;53.314;-6.300;2023-04-27T12:47:36;100593.38;;;14.57;75.61
64368;BME280;50692;53.314;-6.300;2023-04-27T12:50:23;100588.09;;;14.81;75.34
64368;BME280;50692;53.314;-6.300;2023-04-27T12:53:09;100586.91;;;14.85;74.82
64368;BME280;50692;53.314;-6.300;2023-04-27T12:55:54;100581.31;;;15.01;74.10
64368;BME280;50692;53.314;-6.300;2023-04-27T12:58:40;100579.44;;;15.14;73.69
64368;BME280;50692;53.314;-6.300;2023-04-27T13:01:26;100579.00;;;15.20;72.66
64368;BME280;50692;53.314;-6.300;2023-04-27T13:04:17;100567.94;;;15.14;72.20
64368;BME280;50692;53.314;-6.300;2023-04-27T13:07:05;100568.34;;;15.20;71.99
64368;BME280;50692;53.314;-6.300;2023-04-27T13:09:54;100569.34;;;15.30;71.85
64368;BME280;50692;53.314;-6.300;2023-04-27T13:12:41;100569.66;;;15.50;71.72
64368;BME280;50692;53.314;-6.300;2023-04-27T13:15:27;100569.03;;;15.70;71.15
64368;BME280;50692;53.314;-6.300;2023-04-27T13:18:13;100565.28;;;15.84;70.44
64368;BME280;50692;53.314;-6.300;2023-04-27T13:21:01;100565.16;;;15.86;69.49
64368;BME280;50692;53.314;-6.300;2023-04-27T13:23:47;100560.97;;;15.94;69.48
64368;BME280;50692;53.314;-6.300;2023-04-27T13:26:33;100558.16;;;15.96;68.99
64368;BME280;50692;53.314;-6.300;2023-04-27T13:29:20;100561.53;;;15.87;68.87
64368;BME280;50692;53.314;-6.300;2023-04-27T13:32:06;100552.91;;;15.72;69.24
64368;BME280;50692;53.314;-6.300;2023-04-27T13:34:52;100544.47;;;15.54;69.38
64368;BME280;50692;53.314;-6.300;2023-04-27T13:37:38;100549.19;;;15.50;70.46
64368;BME280;50692;53.314;-6.300;2023-04-27T13:40:27;100551.28;;;15.58;70.36
64368;BME280;50692;53.314;-6.300;2023-04-27T13:43:13;100542.06;;;15.51;70.40
64368;BME280;50692;53.314;-6.300;2023-04-27T13:46:00;100545.16;;;15.69;70.46
64368;BME280;50692;53.314;-6.300;2023-04-27T13:48:47;100540.69;;;15.80;69.88
64368;BME280;50692;53.314;-6.300;2023-04-27T13:51:32;100543.59;;;15.66;69.47
64368;BME280;50692;53.314;-6.300;2023-04-27T13:54:19;100548.91;;;15.66;69.59
64368;BME280;50692;53.314;-6.300;2023-04-27T13:57:06;100541.88;;;15.65;69.61
64368;BME280;50692;53.314;-6.300;2023-04-27T13:59:51;100535.91;;;15.62;69.75
64368;BME280;50692;53.314;-6.300;2023-04-27T14:02:38;100529.41;;;15.66;69.65
64368;BME280;50692;53.314;-6.300;2023-04-27T14:05:25;100533.34;;;15.60;69.47
64368;BME280;50692;53.314;-6.300;2023-04-27T14:08:11;100535.66;;;15.65;69.46
64368;BME280;50692;53.314;-6.300;2023-04-27T14:10:57;100525.41;;;15.71;69.20
64368;BME280;50692;53.314;-6.300;2023-04-27T14:13:42;100534.81;;;15.64;69.14
64368;BME280;50692;53.314;-6.300;2023-04-27T14:16:28;100535.38;;;15.45;69.93
64368;BME280;50692;53.314;-6.300;2023-04-27T14:19:14;100538.63;;;15.38;70.56
64368;BME280;50692;53.314;-6.300;2023-04-27T14:22:00;100530.88;;;15.34;70.85
64368;BME280;50692;53.314;-6.300;2023-04-27T14:24:46;100536.94;;;15.37;70.79
64368;BME280;50692;53.314;-6.300;2023-04-27T14:27:32;100534.72;;;15.30;71.03
64368;BME280;50692;53.314;-6.300;2023-04-27T14:30:18;100528.81;;;15.38;70.92
64368;BME280;50692;53.314;-6.300;2023-04-27T14:33:03;100526.75;;;15.30;70.81